createdAt,value
2023-01-12T00:02:36.574Z,6.10
2023-01-12T00:07:38.305Z,5.40
2023-01-12T00:12:46.662Z,5.40
2023-01-12T00:17:48.325Z,6.10
2023-01-12T00:22:49.989Z,5.30
2023-01-12T00:27:51.712Z,5.40
2023-01-12T00:32:53.405Z,5.90
2023-01-12T00:37:55.103Z,4.40
2023-01-12T00:43:15.235Z,5.30
2023-01-12T00:48:22.919Z,5.50
2023-01-12T00:53:24.618Z,6.20
2023-01-12T00:58:28.526Z,5.90
2023-01-12T01:03:30.360Z,6.20
2023-01-12T01:08:32.385Z,6.40
2023-01-12T01:13:36.508Z,6.30
2023-01-12T01:18:38.366Z,8.00
2023-01-12T01:23:41.909Z,8.00
2023-01-12T01:28:44.077Z,8.20
2023-01-12T01:33:46.695Z,6.20
2023-01-12T01:38:50.375Z,7.80
2023-01-12T01:43:53.854Z,9.50
2023-01-12T01:48:56.835Z,7.80
2023-01-12T01:53:59.997Z,6.80
2023-01-12T01:59:11.214Z,8.90
2023-01-12T02:04:14.077Z,11.10
2023-01-12T02:09:24.469Z,11.40
2023-01-12T02:14:45.133Z,8.30
2023-01-12T02:20:22.591Z,7.20
2023-01-12T02:25:43.032Z,8.50
2023-01-12T02:31:23.072Z,6.60
2023-01-12T02:36:47.088Z,7.80
2023-01-12T02:42:39.106Z,8.70
2023-01-12T02:47:56.294Z,6.60
2023-01-12T02:53:04.765Z,6.50
2023-01-12T02:58:09.836Z,6.10
2023-01-12T03:03:12.277Z,8.80
2023-01-12T03:08:17.766Z,6.70
2023-01-12T03:13:21.407Z,7.20
2023-01-12T03:18:48.562Z,6.30
2023-01-12T03:24:00.130Z,8.30
2023-01-12T03:29:15.612Z,8.90
2023-01-12T03:34:17.465Z,8.50
2023-01-12T03:39:37.516Z,9.20
2023-01-12T03:44:52.268Z,8.50
2023-01-12T03:49:58.579Z,11.00
2023-01-12T03:55:03.572Z,10.70
2023-01-12T04:00:12.024Z,9.20
2023-01-12T04:05:16.596Z,9.30
2023-01-12T04:10:18.427Z,9.70
2023-01-12T04:15:20.169Z,9.20
2023-01-12T04:20:21.899Z,10.30
2023-01-12T04:25:24.630Z,9.10
2023-01-12T04:30:28.224Z,11.70
2023-01-12T04:35:29.953Z,10.50
2023-01-12T04:40:31.560Z,10.00
2023-01-12T04:45:39.828Z,10.70
2023-01-12T04:50:44.288Z,9.10
2023-01-12T05:00:47.477Z,10.50
2023-01-12T05:05:49.113Z,9.40
2023-01-12T05:10:56.014Z,9.50
2023-01-12T05:16:06.762Z,13.30
2023-01-12T05:26:10.932Z,11.50
2023-01-12T05:31:13.884Z,11.50
2023-01-12T05:36:16.942Z,11.90
2023-01-12T05:41:18.686Z,15.60
2023-01-12T05:46:26.063Z,13.60
2023-01-12T05:51:30.743Z,13.20
2023-01-12T05:56:33.997Z,14.90
2023-01-12T06:01:36.342Z,18.70
2023-01-12T06:06:38.017Z,17.00
2023-01-12T06:11:58.379Z,16.80
2023-01-12T06:17:00.219Z,14.30
2023-01-12T06:22:02.087Z,17.90
2023-01-12T06:27:04.250Z,14.50
2023-01-12T06:32:05.909Z,13.40
2023-01-12T06:37:08.493Z,17.10
2023-01-12T06:42:28.478Z,17.70
2023-01-12T06:47:31.497Z,15.90
2023-01-12T06:52:33.395Z,13.80
2023-01-12T06:57:35.172Z,14.30
2023-01-12T07:02:36.831Z,20.80
2023-01-12T07:07:40.212Z,18.50
2023-01-12T07:12:42.345Z,15.30
2023-01-12T07:17:44.091Z,17.50
2023-01-12T07:22:45.814Z,23.20
2023-01-12T07:27:58.136Z,18.40
2023-01-12T07:33:08.596Z,18.50
2023-01-12T07:38:10.693Z,17.40
2023-01-12T07:43:14.841Z,24.10
2023-01-12T07:48:16.510Z,18.90
2023-01-12T07:53:19.440Z,14.10
2023-01-12T07:58:21.140Z,15.30
2023-01-12T08:03:22.831Z,18.30
2023-01-12T08:08:24.539Z,14.10
2023-01-12T08:13:26.207Z,11.90
2023-01-12T08:18:32.891Z,13.90
2023-01-12T08:23:41.690Z,14.60
2023-01-12T08:28:48.575Z,12.60
2023-01-12T08:33:53.469Z,12.30
2023-01-12T08:38:56.771Z,13.40
2023-01-12T08:44:02.435Z,14.20
2023-01-12T08:49:09.365Z,13.80
2023-01-12T08:54:12.656Z,13.30
2023-01-12T08:59:14.371Z,14.20
2023-01-12T09:04:16.675Z,13.90
2023-01-12T09:09:20.092Z,11.80
2023-01-12T09:14:21.820Z,11.40
2023-01-12T09:19:23.667Z,9.60
2023-01-12T09:24:25.369Z,11.80
2023-01-12T09:29:27.137Z,9.60
2023-01-12T09:34:29.027Z,9.60
2023-01-12T09:39:31.036Z,8.10
2023-01-12T09:44:57.998Z,9.90
2023-01-12T09:50:08.891Z,9.20
2023-01-12T09:55:18.113Z,6.70
2023-01-12T10:00:20.771Z,8.40
2023-01-12T10:05:39.621Z,7.00
2023-01-12T10:11:06.608Z,7.50
2023-01-12T10:16:18.605Z,6.30
2023-01-12T10:21:23.648Z,6.00
2023-01-12T10:26:32.193Z,6.00
2023-01-12T10:31:34.009Z,5.60
2023-01-12T10:36:42.572Z,6.10
2023-01-12T10:41:44.413Z,6.20
2023-01-12T10:47:10.031Z,6.30
2023-01-12T10:52:35.143Z,6.50
2023-01-12T10:57:36.845Z,5.10
2023-01-12T11:02:43.689Z,5.80
2023-01-12T11:07:49.783Z,5.60
2023-01-12T11:13:01.056Z,4.80
2023-01-12T11:18:10.382Z,4.40
2023-01-12T11:23:36.263Z,4.70
2023-01-12T11:29:02.730Z,3.60
2023-01-12T11:34:21.711Z,3.30
2023-01-12T11:39:25.509Z,3.50
2023-01-12T11:44:34.475Z,4.80
2023-01-12T11:49:52.751Z,2.50
2023-01-12T11:54:55.227Z,3.70
2023-01-12T12:00:53.634Z,4.50
2023-01-12T12:06:10.071Z,3.80
2023-01-12T12:11:34.523Z,2.90
2023-01-12T12:16:48.692Z,4.10
2023-01-12T12:22:27.241Z,2.60
2023-01-12T12:27:59.951Z,3.30
2023-01-12T12:33:11.561Z,3.80
2023-01-12T12:38:46.330Z,2.00
2023-01-12T12:44:32.352Z,2.40
2023-01-12T12:49:44.399Z,2.60
2023-01-12T12:54:51.409Z,2.70
2023-01-12T13:04:55.644Z,2.20
2023-01-12T13:10:22.204Z,3.20
2023-01-12T13:15:29.311Z,2.60
2023-01-12T13:20:48.645Z,1.90
2023-01-12T13:25:56.497Z,3.10
2023-01-12T13:31:00.180Z,3.90
2023-01-12T13:36:10.286Z,2.80
2023-01-12T13:46:44.515Z,3.00
2023-01-12T13:51:55.527Z,2.90
2023-01-12T13:57:04.112Z,3.00
2023-01-12T14:02:18.066Z,2.80
2023-01-12T14:07:31.346Z,2.90
2023-01-12T14:13:05.101Z,3.30
2023-01-12T14:18:13.349Z,3.30
2023-01-12T14:23:27.385Z,3.30
2023-01-12T14:28:29.916Z,3.30
2023-01-12T14:33:34.330Z,2.60
2023-01-12T14:38:40.579Z,3.30
2023-01-12T14:44:02.625Z,2.70
2023-01-12T14:54:24.190Z,2.60
2023-01-12T14:59:30.779Z,3.00
2023-01-12T15:04:32.539Z,3.50
2023-01-12T15:09:50.480Z,2.90
2023-01-12T15:14:52.293Z,3.00
2023-01-12T15:20:12.440Z,3.50
2023-01-12T15:25:35.912Z,4.00
2023-01-12T15:30:38.672Z,4.00
2023-01-12T15:35:45.996Z,3.30
2023-01-12T15:40:48.570Z,3.70
2023-01-12T15:45:51.420Z,4.50
2023-01-12T15:50:53.196Z,4.40
2023-01-12T15:55:54.911Z,4.10
2023-01-12T16:00:57.067Z,6.10
2023-01-12T16:05:58.804Z,5.40
2023-01-12T16:11:09.302Z,5.20
2023-01-12T16:16:16.040Z,5.70
2023-01-12T16:21:22.480Z,4.80
2023-01-12T16:26:25.606Z,5.50
2023-01-12T16:31:27.852Z,5.40
2023-01-12T16:36:29.793Z,4.80
2023-01-12T16:41:31.434Z,4.40
2023-01-12T16:46:33.275Z,3.90
2023-01-12T16:51:35.056Z,4.40
2023-01-12T16:56:36.895Z,6.00
2023-01-12T17:01:38.692Z,4.80
2023-01-12T17:06:41.543Z,5.20
2023-01-12T17:11:43.857Z,4.10
2023-01-12T17:16:45.701Z,4.30
2023-01-12T17:21:49.807Z,5.30
2023-01-12T17:26:53.748Z,5.10
2023-01-12T17:31:58.690Z,4.40
2023-01-12T17:37:08.138Z,5.30
2023-01-12T17:42:31.282Z,4.40
2023-01-12T17:52:34.713Z,6.50
2023-01-12T17:57:36.751Z,6.30
2023-01-12T18:02:38.533Z,5.00
2023-01-12T18:07:42.008Z,4.50
2023-01-12T18:12:43.871Z,5.60
2023-01-12T18:17:45.573Z,5.30
2023-01-12T18:22:47.437Z,6.50
2023-01-12T18:27:49.188Z,6.80
2023-01-12T18:32:50.908Z,6.90
2023-01-12T18:37:52.899Z,7.20
2023-01-12T18:42:55.635Z,6.50
2023-01-12T18:48:16.103Z,6.30
2023-01-12T18:53:25.505Z,7.10
2023-01-12T18:58:31.050Z,7.50
2023-01-12T19:03:34.345Z,5.20
2023-01-12T19:08:54.951Z,4.30
2023-01-12T19:14:15.471Z,4.10
2023-01-12T19:19:18.566Z,3.80
2023-01-12T19:24:39.394Z,4.90
2023-01-12T19:29:43.336Z,3.70
2023-01-12T19:34:46.738Z,3.10
2023-01-12T19:40:00.685Z,3.20
2023-01-12T19:45:08.648Z,2.80
2023-01-12T19:50:13.119Z,3.30
2023-01-12T19:55:14.979Z,4.80
2023-01-12T20:00:17.594Z,3.00
2023-01-12T20:05:22.802Z,3.60
2023-01-12T20:10:25.839Z,3.00
2023-01-12T20:15:28.138Z,3.00
2023-01-12T20:20:31.065Z,2.90
2023-01-12T20:25:33.063Z,3.70
2023-01-12T20:30:38.838Z,2.80
2023-01-12T20:35:45.955Z,3.40
2023-01-12T20:40:47.735Z,4.00
2023-01-12T20:45:50.611Z,3.10
2023-01-12T20:50:52.735Z,3.20
2023-01-12T20:55:54.484Z,3.20
2023-01-12T21:00:56.463Z,3.40
2023-01-12T21:06:00.170Z,3.80
2023-01-12T21:11:01.921Z,2.60
2023-01-12T21:16:07.024Z,2.80
2023-01-12T21:21:09.161Z,2.90
2023-01-12T21:26:11.204Z,2.60
2023-01-12T21:31:13.583Z,2.80
2023-01-12T21:36:17.822Z,2.70
2023-01-12T21:46:23.495Z,3.30
2023-01-12T21:51:25.186Z,3.20
2023-01-12T21:56:27.005Z,3.40
2023-01-12T22:01:28.836Z,2.90
2023-01-12T22:06:31.208Z,3.00
2023-01-12T22:11:32.936Z,2.80
2023-01-12T22:16:35.513Z,2.70
2023-01-12T22:21:37.320Z,3.40
2023-01-12T22:26:38.994Z,3.00
2023-01-12T22:31:42.184Z,3.10
2023-01-12T22:36:43.995Z,2.70
2023-01-12T22:41:47.371Z,2.70
2023-01-12T22:46:49.106Z,3.30
2023-01-12T22:51:50.828Z,2.40
2023-01-12T22:56:52.662Z,2.60
2023-01-12T23:01:54.603Z,1.90
2023-01-12T23:06:56.291Z,2.10
2023-01-12T23:11:58.088Z,3.20
2023-01-12T23:16:59.923Z,2.00
2023-01-12T23:22:01.684Z,2.00
2023-01-12T23:27:04.723Z,2.30
2023-01-12T23:32:06.549Z,2.30
2023-01-12T23:37:08.320Z,2.10
2023-01-12T23:42:10.040Z,1.90
2023-01-12T23:47:12.929Z,2.20
2023-01-12T23:52:17.042Z,1.80
